Time;durP1;ratioP1;P1;durP2;ratioP2;P2;SDS_P1;SDS_P2;PMS_P1;PMS_P2;Temp;Humidity;BMP_temperature;BMP_pressure;BME280_temperature;BME280_humidity;BME280_pressure;Samples;Min_cycle;Max_cycle;Signal;HPM_P1;HPM_P2
2023/02/11 00:00:40;;;;;;;30.58;17.90;;;6.70;99.90;;;;;;5068405;28;20031;-73
2023/02/11 00:03:06;;;;;;;26.90;14.50;;;6.70;99.90;;;;;;5078716;27;20050;-73
2023/02/11 00:05:33;;;;;;;23.73;14.60;;;6.70;99.90;;;;;;5111614;27;20035;-73
2023/02/11 00:08:00;;;;;;;25.40;13.27;;;6.70;99.90;;;;;;5109812;27;20569;-73
2023/02/11 00:10:26;;;;;;;24.17;13.07;;;6.70;99.90;;;;;;5065131;28;20521;-73
2023/02/11 00:12:52;;;;;;;20.40;11.65;;;6.70;99.90;;;;;;5087895;27;20406;-73
2023/02/11 00:15:20;;;;;;;21.35;12.55;;;6.70;99.90;;;;;;5090027;27;20043;-73
2023/02/11 00:17:46;;;;;;;24.67;12.35;;;6.70;99.90;;;;;;5092248;27;20486;-73
2023/02/11 00:20:12;;;;;;;19.10;9.73;;;6.70;99.90;;;;;;5083344;28;20063;-73
2023/02/11 00:22:38;;;;;;;25.05;13.20;;;6.70;99.90;;;;;;5089807;27;20733;-73
2023/02/11 00:25:05;;;;;;;21.85;10.38;;;6.80;99.90;;;;;;5077651;28;20028;-73
2023/02/11 00:27:32;;;;;;;19.35;10.20;;;6.70;99.90;;;;;;5091785;27;20548;-73
2023/02/11 00:30:01;;;;;;;23.67;11.52;;;6.70;99.90;;;;;;5086330;27;20063;-73
2023/02/11 00:32:30;;;;;;;17.02;9.73;;;6.70;99.90;;;;;;5092828;27;20455;-73
2023/02/11 00:34:56;;;;;;;21.95;10.00;;;6.70;99.90;;;;;;5109320;27;20041;-73
2023/02/11 00:37:22;;;;;;;24.02;9.88;;;6.70;99.90;;;;;;5095091;27;20035;-73
2023/02/11 00:39:49;;;;;;;23.63;9.02;;;6.70;99.90;;;;;;5076541;27;20046;-73
2023/02/11 00:42:15;;;;;;;24.98;9.15;;;6.70;99.90;;;;;;5079396;27;20031;-73
2023/02/11 00:44:44;;;;;;;20.63;8.95;;;6.70;99.90;;;;;;5099432;28;20345;-73
2023/02/11 00:47:11;;;;;;;23.05;9.00;;;6.70;99.90;;;;;;5100732;27;20035;-73
2023/02/11 00:49:39;;;;;;;19.42;8.27;;;6.70;99.90;;;;;;5097499;27;20050;-71
2023/02/11 00:52:05;;;;;;;21.95;9.82;;;6.70;99.90;;;;;;5096939;27;20039;-74
2023/02/11 00:54:34;;;;;;;24.17;9.00;;;6.70;99.90;;;;;;5110064;27;20039;-73
2023/02/11 00:57:00;;;;;;;17.77;7.00;;;6.70;99.90;;;;;;5093734;27;20050;-74
2023/02/11 00:59:26;;;;;;;20.20;7.85;;;6.70;99.90;;;;;;5122154;27;20035;-74
2023/02/11 01:01:53;;;;;;;20.23;6.65;;;6.70;99.90;;;;;;5058475;28;20486;-73
2023/02/11 01:04:19;;;;;;;18.88;7.57;;;6.70;99.90;;;;;;5088317;28;20035;-73
2023/02/11 01:06:45;;;;;;;15.52;7.50;;;6.70;99.90;;;;;;5081051;28;20431;-73
2023/02/11 01:09:12;;;;;;;18.48;7.63;;;6.70;99.90;;;;;;5072120;28;20517;-73
2023/02/11 01:11:38;;;;;;;18.10;6.88;;;6.70;99.90;;;;;;5070002;27;20050;-73
2023/02/11 01:14:04;;;;;;;23.48;9.88;;;6.80;99.90;;;;;;5077813;28;20074;-72
2023/02/11 01:16:31;;;;;;;21.02;7.28;;;6.70;99.90;;;;;;5088941;28;20042;-73
2023/02/11 01:18:57;;;;;;;15.68;6.95;;;6.70;99.90;;;;;;5073477;28;20043;-73
2023/02/11 01:21:24;;;;;;;19.38;8.13;;;6.70;99.90;;;;;;5077282;28;20047;-73
2023/02/11 01:23:51;;;;;;;18.33;8.00;;;6.70;99.90;;;;;;5092349;27;20042;-73
2023/02/11 01:26:17;;;;;;;23.02;6.65;;;6.70;99.90;;;;;;5089489;28;20043;-73
2023/02/11 01:28:44;;;;;;;19.02;7.85;;;6.60;99.90;;;;;;5071548;28;20043;-73
2023/02/11 01:31:10;;;;;;;18.67;6.93;;;6.60;99.90;;;;;;5079317;28;20035;-73
2023/02/11 01:33:36;;;;;;;15.30;7.10;;;6.60;99.90;;;;;;5058011;28;20042;-73
2023/02/11 01:36:06;;;;;;;18.23;6.90;;;6.50;99.90;;;;;;5093031;27;20039;-73
2023/02/11 01:38:33;;;;;;;16.25;6.80;;;6.50;99.90;;;;;;5089655;28;20038;-74
2023/02/11 01:41:03;;;;;;;16.05;6.38;;;6.50;99.90;;;;;;5100249;27;20379;-73
2023/02/11 01:43:33;;;;;;;16.80;6.80;;;6.40;99.90;;;;;;5106142;28;20405;-73
2023/02/11 01:46:22;;;;;;;18.15;7.18;;;6.50;99.90;;;;;;5089981;27;20047;-74
2023/02/11 01:48:54;;;;;;;13.80;5.78;;;6.50;99.90;;;;;;5118926;27;20036;-72
2023/02/11 01:51:32;;;;;;;17.35;7.13;;;6.50;99.90;;;;;;5093818;28;20043;-74
2023/02/11 01:59:39;;;;;;;19.30;7.35;;;6.50;99.90;;;;;;5087340;28;20044;-74
2023/02/11 02:02:10;;;;;;;18.35;7.43;;;6.50;99.90;;;;;;5082604;28;20028;-73
2023/02/11 02:04:58;;;;;;;21.83;8.02;;;6.50;99.90;;;;;;5090166;28;20038;-74
2023/02/11 02:07:33;;;;;;;17.92;7.82;;;6.50;99.90;;;;;;5092624;28;20036;-73
2023/02/11 02:10:06;;;;;;;16.05;6.70;;;6.50;99.90;;;;;;5101490;28;20032;-74
2023/02/11 02:12:35;;;;;;;20.73;6.93;;;6.50;99.90;;;;;;5069469;28;20054;-73
2023/02/11 02:15:32;;;;;;;17.55;6.85;;;6.60;99.90;;;;;;5070106;28;20510;-74
2023/02/11 02:18:23;;;;;;;14.38;5.85;;;6.60;99.90;;;;;;5035513;28;20177;-73
2023/02/11 02:21:20;;;;;;;20.35;7.32;;;6.60;99.90;;;;;;5069738;28;20035;-74
2023/02/11 02:24:14;;;;;;;17.73;6.88;;;6.60;99.90;;;;;;5104432;28;20174;-73
2023/02/11 02:27:16;;;;;;;18.25;6.32;;;6.60;99.90;;;;;;5086461;28;20051;-73
2023/02/11 02:30:27;;;;;;;23.75;7.75;;;6.60;99.90;;;;;;4980196;28;20057;-73
2023/02/11 02:33:05;;;;;;;18.48;8.05;;;6.60;99.90;;;;;;5106263;28;20031;-73
2023/02/11 02:35:46;;;;;;;29.35;8.15;;;6.60;99.90;;;;;;5091143;28;20032;-73
2023/02/11 02:38:23;;;;;;;25.30;8.00;;;6.60;99.90;;;;;;5106147;28;20576;-74
2023/02/11 02:41:12;;;;;;;18.58;6.68;;;6.50;99.90;;;;;;5098889;28;20474;-74
2023/02/11 02:43:48;;;;;;;16.17;5.97;;;6.50;99.90;;;;;;5090037;28;20052;-73
2023/02/11 02:46:20;;;;;;;22.63;7.93;;;6.50;99.90;;;;;;5091109;28;20028;-74
2023/02/11 02:48:54;;;;;;;20.95;7.38;;;6.50;99.90;;;;;;5091652;27;20027;-74
2023/02/11 02:51:29;;;;;;;17.52;6.97;;;6.50;99.90;;;;;;5082780;27;20032;-73
2023/02/11 02:54:26;;;;;;;17.15;6.90;;;6.50;99.90;;;;;;5109962;27;20028;-74
2023/02/11 02:57:00;;;;;;;18.48;6.78;;;6.50;99.90;;;;;;5075180;27;20048;-73
2023/02/11 03:00:01;;;;;;;17.00;6.55;;;6.50;99.90;;;;;;5075536;28;20044;-74
2023/02/11 03:02:54;;;;;;;18.77;7.05;;;6.50;99.90;;;;;;5088645;28;20040;-73
2023/02/11 03:05:33;;;;;;;15.95;6.22;;;6.50;99.90;;;;;;5091517;27;20032;-74
2023/02/11 03:08:08;;;;;;;18.90;6.38;;;6.50;99.90;;;;;;5075109;27;20048;-73
2023/02/11 03:10:50;;;;;;;19.52;7.00;;;6.50;99.90;;;;;;5082251;27;20031;-73
2023/02/11 03:13:20;;;;;;;25.37;9.23;;;6.50;99.90;;;;;;5089945;28;20046;-74
2023/02/11 03:15:50;;;;;;;19.90;8.32;;;6.50;99.90;;;;;;5064032;27;20035;-73
2023/02/11 03:18:21;;;;;;;22.00;7.72;;;6.40;99.90;;;;;;5068886;27;20034;-74
2023/02/11 03:20:52;;;;;;;15.68;6.85;;;6.50;99.90;;;;;;5099860;27;20410;-74
2023/02/11 03:23:21;;;;;;;20.75;7.95;;;6.50;99.90;;;;;;5112635;27;20040;-72
2023/02/11 03:25:54;;;;;;;14.02;6.25;;;6.40;99.90;;;;;;5074670;27;20386;-72
2023/02/11 03:28:35;;;;;;;22.20;8.48;;;6.50;99.90;;;;;;5084420;27;20055;-72
2023/02/11 03:31:10;;;;;;;18.52;7.20;;;6.50;99.90;;;;;;5070943;27;20036;-73
2023/02/11 03:33:59;;;;;;;23.13;7.88;;;6.50;99.90;;;;;;5095036;27;20031;-73
2023/02/11 03:36:44;;;;;;;16.40;7.35;;;6.50;99.90;;;;;;5064403;27;20056;-73
2023/02/11 03:39:19;;;;;;;18.73;9.25;;;6.50;99.90;;;;;;5111496;27;20042;-73
2023/02/11 03:41:48;;;;;;;22.85;9.25;;;6.50;99.90;;;;;;5105381;27;20028;-73
2023/02/11 03:44:16;;;;;;;23.02;8.23;;;6.50;99.90;;;;;;5073580;27;20043;-73
2023/02/11 03:46:49;;;;;;;23.80;8.15;;;6.50;99.90;;;;;;5116411;27;20042;-73
2023/02/11 03:49:19;;;;;;;24.00;9.95;;;6.50;99.90;;;;;;5069449;27;20043;-73
2023/02/11 03:51:47;;;;;;;15.95;7.05;;;6.50;99.90;;;;;;5089035;27;20042;-73
2023/02/11 03:54:18;;;;;;;20.33;7.53;;;6.50;99.90;;;;;;5094036;27;20046;-72
2023/02/11 03:56:53;;;;;;;20.35;8.00;;;6.50;99.90;;;;;;5062940;27;20031;-73
2023/02/11 03:59:20;;;;;;;24.33;8.52;;;6.60;99.90;;;;;;5079420;27;20513;-74
2023/02/11 04:01:46;;;;;;;25.30;10.98;;;6.50;99.90;;;;;;5084596;27;20039;-73
2023/02/11 04:04:13;;;;;;;28.45;10.82;;;6.50;99.90;;;;;;5066994;27;20030;-73
2023/02/11 04:06:39;;;;;;;33.60;12.55;;;6.60;99.90;;;;;;5082356;27;20488;-73
2023/02/11 04:09:06;;;;;;;20.05;8.95;;;6.60;99.90;;;;;;5090839;27;20031;-73
2023/02/11 04:11:32;;;;;;;21.98;8.80;;;6.50;99.90;;;;;;5087980;27;20047;-72
2023/02/11 04:13:58;;;;;;;20.45;9.35;;;6.50;99.90;;;;;;5112271;27;20035;-73
2023/02/11 04:16:26;;;;;;;23.83;10.48;;;6.50;99.90;;;;;;5079099;27;20466;-73
2023/02/11 04:18:52;;;;;;;17.23;8.38;;;6.60;99.90;;;;;;5082263;27;20031;-73
2023/02/11 04:21:19;;;;;;;24.58;10.57;;;6.60;99.90;;;;;;5106127;27;20050;-73
2023/02/11 04:23:45;;;;;;;18.15;9.10;;;6.60;99.90;;;;;;5098715;27;20037;-73
2023/02/11 04:26:11;;;;;;;28.50;11.88;;;6.60;99.90;;;;;;5085541;27;20032;-73
2023/02/11 04:28:37;;;;;;;19.63;9.52;;;6.60;99.90;;;;;;5114738;27;20375;-73
2023/02/11 04:31:04;;;;;;;25.02;11.43;;;6.60;99.90;;;;;;5104852;27;20036;-73
2023/02/11 04:33:30;;;;;;;23.13;8.75;;;6.60;99.90;;;;;;5079760;27;20046;-73
2023/02/11 04:35:57;;;;;;;30.25;13.02;;;6.60;99.90;;;;;;5094077;27;20039;-73
2023/02/11 04:38:23;;;;;;;19.05;9.25;;;6.60;99.90;;;;;;5092298;27;20024;-73
2023/02/11 04:40:50;;;;;;;20.60;9.45;;;6.60;99.90;;;;;;5069717;27;20031;-73
2023/02/11 04:43:17;;;;;;;24.67;9.75;;;6.60;99.90;;;;;;5111174;27;20031;-72
2023/02/11 04:45:43;;;;;;;31.30;13.60;;;6.70;99.90;;;;;;5109044;27;20863;-73
2023/02/11 04:48:09;;;;;;;29.88;13.35;;;6.60;99.90;;;;;;5107358;27;20035;-73
2023/02/11 04:50:35;;;;;;;21.23;10.65;;;6.70;99.90;;;;;;5063768;28;20505;-73
2023/02/11 04:53:02;;;;;;;27.30;12.15;;;6.70;99.90;;;;;;5073466;27;20050;-72
2023/02/11 04:55:28;;;;;;;25.98;11.93;;;6.70;99.90;;;;;;5111462;27;20043;-73
2023/02/11 04:57:54;;;;;;;33.45;14.70;;;6.70;99.90;;;;;;5106768;27;20031;-73
2023/02/11 05:00:21;;;;;;;26.80;13.98;;;6.70;99.90;;;;;;5099607;27;20036;-73
2023/02/11 05:02:47;;;;;;;25.00;12.98;;;6.70;99.90;;;;;;5106808;27;20082;-73
2023/02/11 05:05:13;;;;;;;23.35;12.32;;;6.70;99.90;;;;;;5105701;27;20047;-72
2023/02/11 05:07:40;;;;;;;25.15;11.80;;;6.70;99.90;;;;;;5108650;27;20031;-73
2023/02/11 05:10:06;;;;;;;19.20;11.25;;;6.70;99.90;;;;;;5078448;28;20047;-73
2023/02/11 05:12:32;;;;;;;24.70;13.75;;;6.70;99.90;;;;;;5089953;27;20509;-74
2023/02/11 05:14:59;;;;;;;27.40;15.00;;;6.70;99.90;;;;;;5089038;28;20032;-73
2023/02/11 05:17:25;;;;;;;28.45;13.25;;;6.70;99.90;;;;;;5088434;28;20035;-73
2023/02/11 05:19:51;;;;;;;24.27;13.32;;;6.70;99.90;;;;;;5069672;28;20418;-73
2023/02/11 05:22:18;;;;;;;21.60;12.43;;;6.70;99.90;;;;;;5073799;27;20042;-72
2023/02/11 05:24:44;;;;;;;21.38;11.13;;;6.70;99.90;;;;;;5076155;28;20042;-73
2023/02/11 05:27:11;;;;;;;26.40;13.00;;;6.70;99.90;;;;;;5089629;28;20043;-72
2023/02/11 05:29:37;;;;;;;26.83;13.02;;;6.80;99.90;;;;;;5085515;28;20039;-73
2023/02/11 05:32:03;;;;;;;26.08;13.00;;;6.80;99.90;;;;;;5100023;28;20042;-72
2023/02/11 05:34:30;;;;;;;26.77;12.88;;;6.80;99.90;;;;;;5108964;27;20043;-72
2023/02/11 05:36:56;;;;;;;19.95;11.50;;;6.80;99.90;;;;;;5088410;28;20039;-72
2023/02/11 05:39:22;;;;;;;27.55;13.90;;;6.80;99.90;;;;;;5087476;28;20031;-72
2023/02/11 05:41:49;;;;;;;33.85;15.40;;;6.80;99.90;;;;;;5084976;28;20040;-72
2023/02/11 05:44:15;;;;;;;22.42;14.10;;;6.80;99.90;;;;;;5067329;28;20059;-72
2023/02/11 05:46:41;;;;;;;29.48;14.88;;;6.80;99.90;;;;;;5068485;28;20062;-72
2023/02/11 05:49:08;;;;;;;30.65;16.58;;;6.80;99.90;;;;;;5085170;28;20036;-71
2023/02/11 05:51:34;;;;;;;35.72;17.42;;;6.80;99.90;;;;;;5076362;28;20044;-72
2023/02/11 05:54:00;;;;;;;28.25;15.57;;;6.80;99.90;;;;;;5090871;28;20501;-72
2023/02/11 05:56:26;;;;;;;24.33;13.48;;;6.80;99.90;;;;;;5085346;28;20028;-72
2023/02/11 05:58:53;;;;;;;30.38;15.52;;;6.80;99.90;;;;;;5085741;28;20662;-72
2023/02/11 06:01:19;;;;;;;29.17;14.57;;;6.80;99.90;;;;;;5060872;28;20044;-73
2023/02/11 06:03:45;;;;;;;24.67;13.23;;;6.80;99.90;;;;;;5088845;28;20044;-72
2023/02/11 06:06:11;;;;;;;33.65;16.80;;;6.80;99.90;;;;;;5085749;28;20040;-73
2023/02/11 06:08:38;;;;;;;26.75;14.82;;;6.80;99.90;;;;;;5066618;28;20052;-72
2023/02/11 06:11:04;;;;;;;22.02;12.73;;;6.80;99.90;;;;;;5077799;28;20040;-72
2023/02/11 06:13:31;;;;;;;26.23;13.13;;;6.80;99.90;;;;;;5086968;28;20051;-73
2023/02/11 06:15:59;;;;;;;26.48;14.40;;;6.80;99.90;;;;;;5085049;28;20066;-72
2023/02/11 06:18:26;;;;;;;30.38;16.00;;;6.80;99.90;;;;;;5085461;28;20040;-72
2023/02/11 06:20:52;;;;;;;24.42;12.80;;;6.80;99.90;;;;;;5061371;28;20043;-73
2023/02/11 06:23:19;;;;;;;46.60;21.55;;;6.80;99.90;;;;;;5089104;28;20591;-72
2023/02/11 06:25:45;;;;;;;27.42;15.73;;;6.80;99.90;;;;;;5080089;28;20525;-72
2023/02/11 06:28:11;;;;;;;26.55;14.82;;;6.80;99.90;;;;;;5091202;28;20040;-72
2023/02/11 06:30:38;;;;;;;32.13;19.13;;;6.80;99.90;;;;;;5081904;28;20458;-72
2023/02/11 06:33:04;;;;;;;25.83;15.40;;;6.70;99.90;;;;;;5087305;28;20027;-72
2023/02/11 06:35:32;;;;;;;52.47;26.40;;;6.70;99.90;;;;;;5089291;28;20027;-72
2023/02/11 06:37:58;;;;;;;34.47;18.58;;;6.70;99.90;;;;;;5088162;28;20039;-72
2023/02/11 06:40:24;;;;;;;30.48;17.00;;;6.70;99.90;;;;;;5081547;28;20411;-72
2023/02/11 06:42:51;;;;;;;30.95;16.58;;;6.70;99.90;;;;;;5088763;28;20028;-73
2023/02/11 06:45:19;;;;;;;28.20;16.85;;;6.70;99.90;;;;;;5071715;28;20805;-73
2023/02/11 06:47:45;;;;;;;24.65;14.63;;;6.70;99.90;;;;;;5089272;28;20055;-72
2023/02/11 06:50:13;;;;;;;38.80;19.27;;;6.70;99.90;;;;;;5080286;28;20044;-72
2023/02/11 06:52:40;;;;;;;31.10;17.75;;;6.70;99.90;;;;;;5086599;28;20052;-72
2023/02/11 06:55:06;;;;;;;31.60;18.33;;;6.80;99.90;;;;;;5088621;28;20039;-72
2023/02/11 06:57:32;;;;;;;45.50;22.08;;;6.70;99.90;;;;;;5087386;28;20047;-73
2023/02/11 06:59:59;;;;;;;36.15;18.17;;;6.80;99.90;;;;;;5081633;28;20040;-72
2023/02/11 07:02:25;;;;;;;32.72;18.65;;;6.70;99.90;;;;;;5083907;28;20044;-72
2023/02/11 07:04:51;;;;;;;41.70;19.38;;;6.70;99.90;;;;;;5086676;28;20032;-72
2023/02/11 07:07:17;;;;;;;32.22;18.65;;;6.70;99.90;;;;;;5087818;28;20044;-72
2023/02/11 07:09:44;;;;;;;37.22;18.05;;;6.70;99.90;;;;;;5086225;28;20044;-73
2023/02/11 07:12:10;;;;;;;35.63;17.85;;;6.70;99.90;;;;;;5085750;28;20422;-72
2023/02/11 07:14:37;;;;;;;27.90;15.65;;;6.70;99.90;;;;;;5090561;28;20502;-73
2023/02/11 07:17:03;;;;;;;30.98;17.17;;;6.80;99.90;;;;;;5091784;28;20032;-72
2023/02/11 07:19:29;;;;;;;34.42;17.08;;;6.70;99.90;;;;;;5086253;28;20035;-72
2023/02/11 07:21:56;;;;;;;38.97;19.45;;;6.70;99.90;;;;;;5081219;28;20519;-72
2023/02/11 07:24:23;;;;;;;31.60;17.77;;;6.70;99.90;;;;;;5088621;28;20548;-72
2023/02/11 07:26:49;;;;;;;40.30;20.77;;;6.80;99.90;;;;;;5089424;28;20483;-72
2023/02/11 07:29:16;;;;;;;32.05;18.42;;;6.80;99.90;;;;;;5053749;28;20040;-72
2023/02/11 07:31:42;;;;;;;36.28;19.63;;;6.80;99.90;;;;;;5081501;28;20338;-72
2023/02/11 07:34:09;;;;;;;33.13;18.65;;;6.80;99.90;;;;;;5088978;28;20046;-73
2023/02/11 07:36:36;;;;;;;41.72;21.98;;;6.80;99.90;;;;;;5069399;28;20048;-73
2023/02/11 07:39:03;;;;;;;32.58;17.88;;;6.80;99.90;;;;;;5084475;28;20024;-72
2023/02/11 07:41:29;;;;;;;30.25;17.00;;;6.90;99.90;;;;;;5080086;28;20039;-73
2023/02/11 07:43:55;;;;;;;35.15;18.80;;;6.90;99.90;;;;;;5090269;28;20218;-73
2023/02/11 07:46:24;;;;;;;31.90;17.65;;;6.90;99.90;;;;;;5086123;28;20039;-73
2023/02/11 07:48:52;;;;;;;31.80;17.70;;;6.90;99.90;;;;;;5085332;28;20173;-72
2023/02/11 07:51:22;;;;;;;34.03;19.17;;;6.90;99.90;;;;;;5080106;28;20047;-73
2023/02/11 07:53:50;;;;;;;37.97;20.98;;;6.90;99.90;;;;;;5091272;28;20059;-73
2023/02/11 07:56:18;;;;;;;40.25;20.50;;;7.00;99.90;;;;;;5087326;28;20040;-73
2023/02/11 07:58:45;;;;;;;39.10;22.02;;;7.00;99.90;;;;;;5085206;28;20024;-73
2023/02/11 08:01:15;;;;;;;46.03;23.00;;;7.00;99.90;;;;;;5080042;28;20039;-74
2023/02/11 08:03:42;;;;;;;46.10;22.88;;;7.10;99.90;;;;;;5085992;28;20039;-73
2023/02/11 08:06:15;;;;;;;48.33;23.85;;;7.10;99.90;;;;;;5088505;28;20047;-74
2023/02/11 08:08:41;;;;;;;;;;;7.20;99.90;;;;;;5088801;28;20039;-73
2023/02/11 08:11:12;;;;;;;54.28;29.08;;;7.20;99.90;;;;;;5062803;28;19916;-73
2023/02/11 08:13:39;;;;;;;40.85;24.20;;;7.20;99.90;;;;;;5079688;28;20398;-73
2023/02/11 08:16:06;;;;;;;44.05;26.10;;;7.20;99.90;;;;;;5090567;28;20040;-74
2023/02/11 08:18:33;;;;;;;50.97;27.05;;;7.30;99.90;;;;;;5092067;28;20520;-73
2023/02/11 08:21:08;;;;;;;56.28;28.80;;;7.30;99.90;;;;;;5078376;28;20035;-74
2023/02/11 08:23:40;;;;;;;53.38;28.85;;;7.40;99.90;;;;;;5086175;28;20036;-74
2023/02/11 08:26:09;;;;;;;48.17;24.95;;;7.40;99.90;;;;;;5089574;28;20363;-73
2023/02/11 08:28:37;;;;;;;58.55;28.70;;;7.40;99.90;;;;;;5103882;27;20040;-73
2023/02/11 08:31:26;;;;;;;46.30;26.92;;;7.50;99.90;;;;;;5081423;28;20471;-74
2023/02/11 08:33:53;;;;;;;46.70;23.92;;;7.50;99.90;;;;;;5087604;28;20040;-73
2023/02/11 08:36:22;;;;;;;49.17;26.35;;;7.50;99.90;;;;;;5087966;28;20631;-73
2023/02/11 08:38:48;;;;;;;37.78;22.35;;;7.50;99.90;;;;;;5086986;28;20028;-73
2023/02/11 08:41:16;;;;;;;55.22;28.30;;;7.60;99.90;;;;;;5083617;28;20054;-73
2023/02/11 08:43:44;;;;;;;48.80;27.70;;;7.60;99.90;;;;;;5092189;27;20406;-74
2023/02/11 08:46:17;;;;;;;61.88;32.50;;;7.60;99.90;;;;;;5089904;28;20032;-73
2023/02/11 08:48:44;;;;;;;47.55;26.63;;;7.60;99.90;;;;;;5074741;28;20397;-73
2023/02/11 08:51:20;;;;;;;67.50;32.50;;;7.70;99.90;;;;;;5092427;28;20524;-74
2023/02/11 08:53:46;;;;;;;56.25;29.55;;;7.70;99.90;;;;;;5111839;27;20422;-73
2023/02/11 08:56:13;;;;;;;56.08;30.77;;;7.70;99.90;;;;;;5097491;27;20055;-74
2023/02/11 08:58:41;;;;;;;63.28;33.20;;;7.80;99.90;;;;;;5098267;28;20038;-74
2023/02/11 09:01:16;;;;;;;50.17;29.30;;;7.80;99.90;;;;;;5104328;27;20486;-73
2023/02/11 09:03:43;;;;;;;51.55;28.40;;;7.80;99.90;;;;;;5108652;27;20031;-73
2023/02/11 09:06:11;;;;;;;49.50;29.98;;;7.90;99.90;;;;;;5092320;28;20032;-74
2023/02/11 09:08:39;;;;;;;57.63;30.58;;;7.90;99.90;;;;;;5089150;28;20395;-73
2023/02/11 09:11:05;;;;;;;52.45;29.25;;;7.90;99.90;;;;;;5083310;28;20035;-74
2023/02/11 09:13:32;;;;;;;46.80;25.42;;;8.00;99.90;;;;;;5074261;27;20047;-74
2023/02/11 09:16:00;;;;;;;49.78;27.83;;;8.00;99.90;;;;;;5089774;27;20413;-74
2023/02/11 09:18:27;;;;;;;52.55;29.33;;;8.10;99.90;;;;;;5110507;27;20032;-74
2023/02/11 09:21:04;;;;;;;48.55;26.88;;;8.20;99.90;;;;;;5101850;27;20038;-73
2023/02/11 09:23:33;;;;;;;50.15;26.95;;;8.20;99.90;;;;;;5093395;28;20038;-74
2023/02/11 09:26:08;;;;;;;46.20;28.35;;;8.20;99.90;;;;;;5078508;27;20435;-74
2023/02/11 09:28:34;;;;;;;50.65;28.77;;;8.30;99.90;;;;;;5110632;27;20028;-74
2023/02/11 09:31:08;;;;;;;47.80;28.45;;;8.30;99.90;;;;;;5084814;27;20035;-73
2023/02/11 09:33:36;;;;;;;46.03;26.58;;;8.30;99.90;;;;;;5092169;28;20047;-73
2023/02/11 09:36:04;;;;;;;49.10;28.38;;;8.40;99.90;;;;;;5091040;28;20058;-74
2023/02/11 09:38:31;;;;;;;47.75;27.23;;;8.50;99.90;;;;;;5109635;27;20054;-74
2023/02/11 09:40:58;;;;;;;45.88;27.52;;;8.50;99.90;;;;;;5082815;28;20038;-73
2023/02/11 09:43:38;;;;;;;51.08;29.02;;;8.60;99.90;;;;;;5089772;28;20054;-74
2023/02/11 09:46:05;;;;;;;42.13;23.98;;;8.60;99.90;;;;;;5089878;28;20027;-73
2023/02/11 09:48:39;;;;;;;37.35;23.98;;;8.70;99.90;;;;;;5107777;27;20816;-73
2023/02/11 09:51:11;;;;;;;40.63;23.92;;;8.70;99.90;;;;;;5053773;28;20054;-73
2023/02/11 09:53:41;;;;;;;35.87;22.37;;;8.80;99.90;;;;;;5087558;28;20509;-73
2023/02/11 09:56:13;;;;;;;37.50;23.88;;;8.90;99.90;;;;;;5106008;28;20276;-74
2023/02/11 09:58:42;;;;;;;37.90;23.52;;;9.00;99.90;;;;;;5073165;28;20039;-73
2023/02/11 10:01:22;;;;;;;38.13;22.77;;;9.00;99.90;;;;;;5098067;28;20379;-74
2023/02/11 10:04:03;;;;;;;42.90;23.40;;;9.10;99.90;;;;;;5090118;28;20027;-73
2023/02/11 10:06:49;;;;;;;40.40;26.00;;;9.10;99.90;;;;;;5088058;28;20043;-74
2023/02/11 10:09:24;;;;;;;39.20;24.42;;;9.10;99.90;;;;;;5069705;28;20036;-74
2023/02/11 10:12:15;;;;;;;37.55;24.30;;;9.10;99.90;;;;;;5069827;28;20043;-74
2023/02/11 10:15:12;;;;;;;34.92;23.40;;;9.20;99.90;;;;;;5079243;28;20054;-73
2023/02/11 10:18:09;;;;;;;39.20;25.23;;;9.20;99.90;;;;;;5108800;28;20046;-74
2023/02/11 10:20:54;;;;;;;39.13;24.85;;;9.20;99.90;;;;;;5077190;28;20043;-74
2023/02/11 10:23:28;;;;;;;36.20;23.67;;;9.20;99.90;;;;;;5058798;28;20039;-74
2023/02/11 10:25:56;;;;;;;36.15;24.13;;;9.30;99.90;;;;;;5061501;28;20035;-74
2023/02/11 10:28:27;;;;;;;42.03;24.92;;;9.30;99.90;;;;;;5091037;28;20047;-73
2023/02/11 10:30:58;;;;;;;35.50;23.23;;;9.40;99.90;;;;;;5081655;28;20035;-73
2023/02/11 10:33:54;;;;;;;34.05;20.60;;;9.40;99.90;;;;;;5105775;28;20054;-73
2023/02/11 10:36:24;;;;;;;42.45;25.83;;;9.40;99.90;;;;;;5089647;28;20035;-73
2023/02/11 10:38:50;;;;;;;43.13;25.00;;;9.50;99.90;;;;;;5108262;28;20035;-74
2023/02/11 10:41:25;;;;;;;47.30;28.15;;;9.60;99.90;;;;;;5089216;28;20046;-74
2023/02/11 10:43:51;;;;;;;32.80;22.27;;;9.70;99.90;;;;;;5077093;28;20403;-73
2023/02/11 10:46:23;;;;;;;31.33;21.58;;;9.80;99.90;;;;;;5063980;28;20039;-73
2023/02/11 10:48:52;;;;;;;31.48;21.95;;;9.90;99.90;;;;;;5095777;28;20489;-74
2023/02/11 10:51:26;;;;;;;33.58;21.58;;;10.00;99.90;;;;;;5080295;28;20048;-73
2023/02/11 10:54:08;;;;;;;38.22;26.13;;;10.10;99.90;;;;;;5088351;28;20048;-73
2023/02/11 10:56:38;;;;;;;37.58;25.23;;;10.20;99.90;;;;;;5091775;28;20051;-74
2023/02/11 10:59:23;;;;;;;30.55;19.80;;;10.20;99.90;;;;;;5064617;28;20337;-74
2023/02/11 11:01:52;;;;;;;29.92;20.60;;;10.30;99.90;;;;;;5064879;28;20138;-73
2023/02/11 11:04:42;;;;;;;33.72;23.00;;;10.30;99.90;;;;;;5086698;28;20036;-73
2023/02/11 11:07:21;;;;;;;25.83;18.42;;;10.30;99.90;;;;;;5084952;28;20040;-74
2023/02/11 11:10:02;;;;;;;32.42;20.45;;;10.40;99.90;;;;;;5086366;28;20702;-74
2023/02/11 11:12:30;;;;;;;33.92;22.05;;;10.50;99.90;;;;;;5088659;28;20039;-74
2023/02/11 11:15:00;;;;;;;22.60;17.80;;;10.50;99.90;;;;;;5090473;28;20050;-74
2023/02/11 11:17:30;;;;;;;29.30;19.63;;;10.50;99.90;;;;;;5071721;28;20482;-73
2023/02/11 11:20:35;;;;;;;29.33;21.02;;;10.50;99.90;;;;;;5064321;28;20047;-74
2023/02/11 11:23:15;;;;;;;44.58;26.77;;;10.50;99.90;;;;;;5005854;28;20309;-74
2023/02/11 11:25:45;;;;;;;31.65;20.75;;;10.60;99.90;;;;;;5000393;28;20579;-75
2023/02/11 11:28:24;;;;;;;32.92;23.10;;;10.60;99.90;;;;;;5045382;28;20279;-74
2023/02/11 11:30:52;;;;;;;32.58;23.02;;;10.60;99.90;;;;;;5079536;28;20035;-75
2023/02/11 11:33:41;;;;;;;36.58;24.67;;;10.60;99.90;;;;;;5070997;28;20040;-73
2023/02/11 11:36:10;;;;;;;34.22;23.92;;;10.70;99.90;;;;;;5106417;27;20031;-74
2023/02/11 11:38:53;;;;;;;34.45;23.05;;;10.70;99.90;;;;;;5089435;28;20040;-74
2023/02/11 11:41:19;;;;;;;29.88;22.20;;;10.80;99.90;;;;;;5081661;28;20047;-74
2023/02/11 11:44:00;;;;;;;30.85;21.42;;;10.90;99.90;;;;;;5089819;28;20048;-73
2023/02/11 11:46:34;;;;;;;30.65;21.48;;;11.00;99.90;;;;;;5087208;28;20470;-73
2023/02/11 11:49:05;;;;;;;29.40;20.13;;;10.90;99.90;;;;;;5074864;28;20503;-74
2023/02/11 11:51:33;;;;;;;26.58;19.98;;;11.10;99.90;;;;;;5081973;28;20040;-74
2023/02/11 11:54:05;;;;;;;26.33;19.08;;;11.10;99.90;;;;;;5089352;28;20040;-74
2023/02/11 11:56:34;;;;;;;23.88;19.20;;;11.30;99.90;;;;;;5088118;28;20043;-74
2023/02/11 11:59:09;;;;;;;27.00;18.10;;;11.40;99.90;;;;;;5090845;28;20031;-73
2023/02/11 12:02:32;;;;;;;23.65;16.38;;;11.50;99.90;;;;;;5067418;28;20047;-73
2023/02/11 12:05:26;;;;;;;22.80;15.75;;;11.70;99.90;;;;;;5005224;28;20217;-74
2023/02/11 12:08:01;;;;;;;22.77;14.07;;;11.70;99.90;;;;;;4991980;28;20035;-74
2023/02/11 12:11:06;;;;;;;21.17;13.90;;;11.70;99.90;;;;;;5065892;28;20056;-74
2023/02/11 12:13:56;;;;;;;17.48;13.98;;;11.70;99.90;;;;;;5058696;28;20051;-74
2023/02/11 12:16:38;;;;;;;20.42;14.25;;;11.60;99.90;;;;;;5086323;28;20039;-73
2023/02/11 12:19:31;;;;;;;17.60;12.13;;;11.50;99.90;;;;;;5087600;28;20036;-74
2023/02/11 12:22:03;;;;;;;19.20;12.63;;;11.50;99.90;;;;;;5084405;28;20503;-74
2023/02/11 12:24:50;;;;;;;19.52;13.23;;;11.50;99.90;;;;;;5085728;28;20143;-74
2023/02/11 12:27:19;;;;;;;17.58;11.93;;;11.40;99.90;;;;;;5088385;28;20406;-74
2023/02/11 12:30:16;;;;;;;19.55;13.32;;;11.30;99.90;;;;;;5086289;28;20043;-73
2023/02/11 12:33:00;;;;;;;13.05;10.77;;;11.30;99.90;;;;;;5074243;28;20399;-73
2023/02/11 12:35:57;;;;;;;16.52;11.73;;;11.30;99.90;;;;;;5086105;28;20035;-73
2023/02/11 12:38:38;;;;;;;13.73;11.30;;;11.40;99.90;;;;;;5090041;28;20395;-73
2023/02/11 12:41:16;;;;;;;16.33;11.40;;;11.60;99.90;;;;;;5080382;28;20501;-74
2023/02/11 12:43:43;;;;;;;12.50;8.85;;;11.80;99.90;;;;;;5082946;28;20079;-74
2023/02/11 12:46:30;;;;;;;12.77;9.57;;;11.90;99.90;;;;;;5089249;28;20044;-74
2023/02/11 12:49:06;;;;;;;16.98;10.65;;;12.10;99.90;;;;;;5085888;28;20032;-73
2023/02/11 12:52:13;;;;;;;20.42;12.90;;;12.20;99.90;;;;;;5063802;28;20039;-74
2023/02/11 12:54:54;;;;;;;18.50;12.18;;;12.30;99.90;;;;;;5068171;28;20051;-74
2023/02/11 12:57:27;;;;;;;13.57;9.30;;;12.30;99.90;;;;;;5084829;28;20047;-74
2023/02/11 13:00:14;;;;;;;12.65;9.32;;;12.20;99.90;;;;;;5079212;28;20494;-74
2023/02/11 13:02:40;;;;;;;12.90;8.68;;;12.10;99.90;;;;;;5086903;28;20546;-73
2023/02/11 13:05:25;;;;;;;13.07;8.68;;;12.00;99.90;;;;;;5088445;28;20032;-74
2023/02/11 13:07:58;;;;;;;10.95;8.68;;;12.00;99.90;;;;;;5086066;28;20036;-74